sensor_id;sensor_type;location;lat;lon;timestamp;pressure;altitude;pressure_sealevel;temperature;humidity
36748;BME280;22716;51.556;5.080;2023-04-08T00:00:15;101541.53;;;8.40;100.00
36748;BME280;22716;51.556;5.080;2023-04-08T00:02:44;101532.81;;;8.35;100.00
36748;BME280;22716;51.556;5.080;2023-04-08T00:05:13;101537.16;;;8.33;100.00
36748;BME280;22716;51.556;5.080;2023-04-08T00:07:42;101538.03;;;8.35;100.00
36748;BME280;22716;51.556;5.080;2023-04-08T00:10:10;101543.25;;;8.37;100.00
36748;BME280;22716;51.556;5.080;2023-04-08T00:12:42;101548.50;;;8.38;100.00
36748;BME280;22716;51.556;5.080;2023-04-08T00:15:11;101545.03;;;8.41;100.00
36748;BME280;22716;51.556;5.080;2023-04-08T00:17:40;101542.41;;;8.38;100.00
36748;BME280;22716;51.556;5.080;2023-04-08T00:20:10;101548.53;;;8.43;100.00
36748;BME280;22716;51.556;5.080;2023-04-08T00:22:39;101545.03;;;8.39;100.00
36748;BME280;22716;51.556;5.080;2023-04-08T00:25:08;101546.72;;;8.37;100.00
36748;BME280;22716;51.556;5.080;2023-04-08T00:27:37;101553.75;;;8.43;100.00
36748;BME280;22716;51.556;5.080;2023-04-08T00:30:09;101552.03;;;8.43;100.00
36748;BME280;22716;51.556;5.080;2023-04-08T00:32:38;101553.78;;;8.44;100.00
36748;BME280;22716;51.556;5.080;2023-04-08T00:35:07;101559.91;;;8.48;100.00
36748;BME280;22716;51.556;5.080;2023-04-08T00:37:37;101560.81;;;8.55;100.00
36748;BME280;22716;51.556;5.080;2023-04-08T00:40:07;101560.84;;;8.56;100.00
36748;BME280;22716;51.556;5.080;2023-04-08T00:42:37;101554.75;;;8.56;100.00
36748;BME280;22716;51.556;5.080;2023-04-08T00:45:10;101564.31;;;8.54;100.00
36748;BME280;22716;51.556;5.080;2023-04-08T00:47:39;101542.47;;;8.49;100.00
36748;BME280;22716;51.556;5.080;2023-04-08T00:50:09;101559.09;;;8.54;100.00
36748;BME280;22716;51.556;5.080;2023-04-08T00:52:38;101559.13;;;8.57;100.00
36748;BME280;22716;51.556;5.080;2023-04-08T00:55:08;101566.97;;;8.57;100.00
36748;BME280;22716;51.556;5.080;2023-04-08T00:57:37;101546.88;;;8.51;100.00
36748;BME280;22716;51.556;5.080;2023-04-08T01:00:10;101556.50;;;8.57;100.00
36748;BME280;22716;51.556;5.080;2023-04-08T01:02:44;101569.63;;;8.64;100.00
36748;BME280;22716;51.556;5.080;2023-04-08T01:05:22;101569.63;;;8.64;100.00
36748;BME280;22716;51.556;5.080;2023-04-08T01:07:55;101563.53;;;8.64;100.00
36748;BME280;22716;51.556;5.080;2023-04-08T01:10:29;101567.03;;;8.67;100.00
36748;BME280;22716;51.556;5.080;2023-04-08T01:13:03;101559.22;;;8.69;100.00
36748;BME280;22716;51.556;5.080;2023-04-08T01:15:37;101580.16;;;8.72;100.00
36748;BME280;22716;51.556;5.080;2023-04-08T01:18:09;101572.28;;;8.70;100.00
36748;BME280;22716;51.556;5.080;2023-04-08T01:20:40;101574.03;;;8.70;100.00
36748;BME280;22716;51.556;5.080;2023-04-08T01:23:14;101577.53;;;8.69;100.00
36748;BME280;22716;51.556;5.080;2023-04-08T01:25:50;101574.94;;;8.72;100.00
36748;BME280;22716;51.556;5.080;2023-04-08T01:28:20;101580.16;;;8.72;100.00
36748;BME280;22716;51.556;5.080;2023-04-08T01:30:50;101575.75;;;8.69;100.00
36748;BME280;22716;51.556;5.080;2023-04-08T01:33:20;101573.13;;;8.65;100.00
36748;BME280;22716;51.556;5.080;2023-04-08T01:35:50;101567.03;;;8.67;100.00
36748;BME280;22716;51.556;5.080;2023-04-08T01:38:22;101567.03;;;8.66;100.00
36748;BME280;22716;51.556;5.080;2023-04-08T01:40:56;101562.63;;;8.59;100.00
36748;BME280;22716;51.556;5.080;2023-04-08T01:43:26;101579.22;;;8.67;100.00
36748;BME280;22716;51.556;5.080;2023-04-08T01:45:57;101580.09;;;8.66;100.00
36748;BME280;22716;51.556;5.080;2023-04-08T01:48:27;101566.06;;;8.58;100.00
36748;BME280;22716;51.556;5.080;2023-04-08T01:50:57;101580.97;;;8.65;100.00
36748;BME280;22716;51.556;5.080;2023-04-08T01:53:27;101583.56;;;8.66;100.00
36748;BME280;22716;51.556;5.080;2023-04-08T01:56:03;101583.56;;;8.65;100.00
36748;BME280;22716;51.556;5.080;2023-04-08T01:58:37;101585.31;;;8.64;100.00
36748;BME280;22716;51.556;5.080;2023-04-08T02:01:09;101576.56;;;8.61;100.00
36748;BME280;22716;51.556;5.080;2023-04-08T02:03:42;101559.03;;;8.49;100.00
36748;BME280;22716;51.556;5.080;2023-04-08T02:06:11;101575.66;;;8.59;100.00
36748;BME280;22716;51.556;5.080;2023-04-08T02:08:40;101583.53;;;8.63;100.00
36748;BME280;22716;51.556;5.080;2023-04-08T02:11:12;101580.06;;;8.63;100.00
36748;BME280;22716;51.556;5.080;2023-04-08T02:13:41;101579.19;;;8.62;100.00
36748;BME280;22716;51.556;5.080;2023-04-08T02:16:15;101569.59;;;8.60;100.00
36748;BME280;22716;51.556;5.080;2023-04-08T02:18:53;101582.66;;;8.60;100.00
36748;BME280;22716;51.556;5.080;2023-04-08T02:21:29;101577.38;;;8.55;100.00
36748;BME280;22716;51.556;5.080;2023-04-08T02:24:03;101559.00;;;8.44;100.00
36748;BME280;22716;51.556;5.080;2023-04-08T02:26:36;101580.00;;;8.54;100.00
36748;BME280;22716;51.556;5.080;2023-04-08T02:29:11;101573.03;;;8.54;100.00
36748;BME280;22716;51.556;5.080;2023-04-08T02:31:42;101586.09;;;8.56;100.00
36748;BME280;22716;51.556;5.080;2023-04-08T02:34:12;101586.13;;;8.59;100.00
36748;BME280;22716;51.556;5.080;2023-04-08T02:36:42;101580.03;;;8.57;100.00
36748;BME280;22716;51.556;5.080;2023-04-08T02:39:12;101584.38;;;8.59;100.00
36748;BME280;22716;51.556;5.080;2023-04-08T02:41:43;101580.03;;;8.61;100.00
36748;BME280;22716;51.556;5.080;2023-04-08T02:44:12;101584.41;;;8.62;100.00
36748;BME280;22716;51.556;5.080;2023-04-08T02:46:41;101590.53;;;8.63;100.00
36748;BME280;22716;51.556;5.080;2023-04-08T02:49:09;101583.50;;;8.60;100.00
36748;BME280;22716;51.556;5.080;2023-04-08T02:51:38;101586.97;;;8.58;100.00
36748;BME280;22716;51.556;5.080;2023-04-08T02:54:07;101579.13;;;8.56;100.00
36748;BME280;22716;51.556;5.080;2023-04-08T02:56:36;101591.34;;;8.60;100.00
36748;BME280;22716;51.556;5.080;2023-04-08T02:59:07;101588.69;;;8.51;100.00
36748;BME280;22716;51.556;5.080;2023-04-08T03:01:36;101589.53;;;8.50;100.00
36748;BME280;22716;51.556;5.080;2023-04-08T03:04:05;101593.00;;;8.52;100.00
36748;BME280;22716;51.556;5.080;2023-04-08T03:06:33;101592.16;;;8.53;100.00
36748;BME280;22716;51.556;5.080;2023-04-08T03:09:02;101584.31;;;8.50;100.00
36748;BME280;22716;51.556;5.080;2023-04-08T03:11:31;101592.13;;;8.52;100.00
36748;BME280;22716;51.556;5.080;2023-04-08T03:14:00;101593.94;;;8.54;100.00
36748;BME280;22716;51.556;5.080;2023-04-08T03:16:33;101596.53;;;8.56;100.00
36748;BME280;22716;51.556;5.080;2023-04-08T03:19:01;101569.38;;;8.38;100.00
36748;BME280;22716;51.556;5.080;2023-04-08T03:21:30;101593.06;;;8.58;100.00
36748;BME280;22716;51.556;5.080;2023-04-08T03:23:59;101593.94;;;8.56;100.00
36748;BME280;22716;51.556;5.080;2023-04-08T03:26:27;101601.75;;;8.56;100.00
36748;BME280;22716;51.556;5.080;2023-04-08T03:28:56;101599.13;;;8.53;100.00
36748;BME280;22716;51.556;5.080;2023-04-08T03:31:26;101600.84;;;8.52;100.00
36748;BME280;22716;51.556;5.080;2023-04-08T03:33:58;101607.00;;;8.54;100.00
36748;BME280;22716;51.556;5.080;2023-04-08T03:36:26;101591.25;;;8.48;100.00
36748;BME280;22716;51.556;5.080;2023-04-08T03:38:55;101596.47;;;8.50;100.00
36748;BME280;22716;51.556;5.080;2023-04-08T03:41:24;101607.00;;;8.54;100.00
36748;BME280;22716;51.556;5.080;2023-04-08T03:43:53;101606.09;;;8.54;100.00
36748;BME280;22716;51.556;5.080;2023-04-08T03:46:21;101603.44;;;8.49;100.00
36748;BME280;22716;51.556;5.080;2023-04-08T03:48:50;101612.19;;;8.53;100.00
36748;BME280;22716;51.556;5.080;2023-04-08T03:51:21;101609.59;;;8.56;100.00
36748;BME280;22716;51.556;5.080;2023-04-08T03:53:50;101612.22;;;8.57;100.00
36748;BME280;22716;51.556;5.080;2023-04-08T03:56:19;101602.63;;;8.53;100.00
36748;BME280;22716;51.556;5.080;2023-04-08T03:58:48;101617.44;;;8.56;100.00
36748;BME280;22716;51.556;5.080;2023-04-08T04:01:16;101612.25;;;8.60;100.00
36748;BME280;22716;51.556;5.080;2023-04-08T04:03:45;101607.91;;;8.61;100.00
36748;BME280;22716;51.556;5.080;2023-04-08T04:06:14;101604.44;;;8.62;100.00
36748;BME280;22716;51.556;5.080;2023-04-08T04:08:45;101590.41;;;8.51;100.00
36748;BME280;22716;51.556;5.080;2023-04-08T04:11:14;101607.03;;;8.59;100.00
36748;BME280;22716;51.556;5.080;2023-04-08T04:13:43;101612.28;;;8.62;100.00
36748;BME280;22716;51.556;5.080;2023-04-08T04:16:12;101605.28;;;8.59;100.00
36748;BME280;22716;51.556;5.080;2023-04-08T04:18:41;101609.63;;;8.60;100.00
36748;BME280;22716;51.556;5.080;2023-04-08T04:21:10;101600.81;;;8.49;100.00
36748;BME280;22716;51.556;5.080;2023-04-08T04:23:38;101613.13;;;8.61;100.00
36748;BME280;22716;51.556;5.080;2023-04-08T04:26:10;101601.75;;;8.56;100.00
36748;BME280;22716;51.556;5.080;2023-04-08T04:28:39;101614.00;;;8.60;100.00
36748;BME280;22716;51.556;5.080;2023-04-08T04:31:17;101607.84;;;8.55;100.00
36748;BME280;22716;51.556;5.080;2023-04-08T04:33:46;101612.22;;;8.57;100.00
36748;BME280;22716;51.556;5.080;2023-04-08T04:36:15;101615.72;;;8.56;100.00
36748;BME280;22716;51.556;5.080;2023-04-08T04:38:44;101625.31;;;8.60;100.00
36748;BME280;22716;51.556;5.080;2023-04-08T04:41:15;101635.78;;;8.62;100.00
36748;BME280;22716;51.556;5.080;2023-04-08T04:43:44;101636.63;;;8.61;100.00
36748;BME280;22716;51.556;5.080;2023-04-08T04:46:13;101634.00;;;8.56;100.00
36748;BME280;22716;51.556;5.080;2023-04-08T04:48:42;101639.22;;;8.56;100.00
36748;BME280;22716;51.556;5.080;2023-04-08T04:51:11;101641.84;;;8.61;100.00
36748;BME280;22716;51.556;5.080;2023-04-08T04:53:40;101561.25;;;8.14;100.00
36748;BME280;22716;51.556;5.080;2023-04-08T04:56:09;101655.81;;;8.61;100.00
36748;BME280;22716;51.556;5.080;2023-04-08T04:58:40;101637.38;;;8.48;100.00
36748;BME280;22716;51.556;5.080;2023-04-08T05:01:10;101649.56;;;8.47;100.00
36748;BME280;22716;51.556;5.080;2023-04-08T05:03:39;101647.78;;;8.44;100.00
36748;BME280;22716;51.556;5.080;2023-04-08T05:06:08;101634.69;;;8.41;100.00
36748;BME280;22716;51.556;5.080;2023-04-08T05:08:36;101655.63;;;8.44;100.00
36748;BME280;22716;51.556;5.080;2023-04-08T05:11:08;101656.53;;;8.50;100.00
36748;BME280;22716;51.556;5.080;2023-04-08T05:13:39;101660.06;;;8.55;100.00
36748;BME280;22716;51.556;5.080;2023-04-08T05:16:08;101667.06;;;8.57;100.00
36748;BME280;22716;51.556;5.080;2023-04-08T05:18:37;101666.25;;;8.60;100.00
36748;BME280;22716;51.556;5.080;2023-04-08T05:21:06;101639.09;;;8.45;100.00
36748;BME280;22716;51.556;5.080;2023-04-08T05:23:34;101673.22;;;8.64;100.00
36748;BME280;22716;51.556;5.080;2023-04-08T05:26:06;101669.72;;;8.60;100.00
36748;BME280;22716;51.556;5.080;2023-04-08T05:28:35;101642.56;;;8.46;100.00
36748;BME280;22716;51.556;5.080;2023-04-08T05:31:06;101670.59;;;8.59;100.00
36748;BME280;22716;51.556;5.080;2023-04-08T05:33:36;101674.09;;;8.60;100.00
36748;BME280;22716;51.556;5.080;2023-04-08T05:36:05;101668.81;;;8.57;100.00
36748;BME280;22716;51.556;5.080;2023-04-08T05:38:34;101687.16;;;8.60;100.00
36748;BME280;22716;51.556;5.080;2023-04-08T05:41:03;101679.25;;;8.55;100.00
36748;BME280;22716;51.556;5.080;2023-04-08T05:43:32;101674.91;;;8.56;100.00
36748;BME280;22716;51.556;5.080;2023-04-08T05:46:07;101682.78;;;8.59;100.00
36748;BME280;22716;51.556;5.080;2023-04-08T05:48:36;101660.94;;;8.51;100.00
36748;BME280;22716;51.556;5.080;2023-04-08T05:51:05;101683.66;;;8.59;100.00
36748;BME280;22716;51.556;5.080;2023-04-08T05:53:34;101681.94;;;8.61;100.00
36748;BME280;22716;51.556;5.080;2023-04-08T05:56:03;101685.41;;;8.62;100.00
36748;BME280;22716;51.556;5.080;2023-04-08T05:58:32;101693.28;;;8.65;100.00
36748;BME280;22716;51.556;5.080;2023-04-08T06:01:01;101678.34;;;8.55;100.00
36748;BME280;22716;51.556;5.080;2023-04-08T06:03:33;101690.63;;;8.63;100.00
36748;BME280;22716;51.556;5.080;2023-04-08T06:06:02;101701.16;;;8.68;100.00
36748;BME280;22716;51.556;5.080;2023-04-08T06:08:31;101705.53;;;8.69;100.00
36748;BME280;22716;51.556;5.080;2023-04-08T06:11:00;101709.00;;;8.69;100.00
36748;BME280;22716;51.556;5.080;2023-04-08T06:13:30;101689.75;;;8.60;100.00
36748;BME280;22716;51.556;5.080;2023-04-08T06:16:09;101708.13;;;8.66;100.00
36748;BME280;22716;51.556;5.080;2023-04-08T06:18:41;101714.22;;;8.69;100.00
36748;BME280;22716;51.556;5.080;2023-04-08T06:21:10;101709.88;;;8.70;100.00
36748;BME280;22716;51.556;5.080;2023-04-08T06:23:39;101716.72;;;8.60;100.00
36748;BME280;22716;51.556;5.080;2023-04-08T06:26:08;101721.09;;;8.61;100.00
36748;BME280;22716;51.556;5.080;2023-04-08T06:28:37;101725.47;;;8.64;100.00
36748;BME280;22716;51.556;5.080;2023-04-08T06:31:06;101731.59;;;8.64;100.00
36748;BME280;22716;51.556;5.080;2023-04-08T06:33:35;101721.19;;;8.66;100.00
36748;BME280;22716;51.556;5.080;2023-04-08T06:36:07;101718.56;;;8.66;100.00
36748;BME280;22716;51.556;5.080;2023-04-08T06:38:37;101729.06;;;8.69;100.00
36748;BME280;22716;51.556;5.080;2023-04-08T06:41:08;101736.91;;;8.72;100.00
36748;BME280;22716;51.556;5.080;2023-04-08T06:43:36;101741.38;;;8.80;100.00
36748;BME280;22716;51.556;5.080;2023-04-08T06:46:05;101723.84;;;8.75;100.00
36748;BME280;22716;51.556;5.080;2023-04-08T06:48:34;101743.16;;;8.86;100.00
36748;BME280;22716;51.556;5.080;2023-04-08T06:51:06;101730.06;;;8.83;100.00
36748;BME280;22716;51.556;5.080;2023-04-08T06:53:35;101752.78;;;8.90;100.00
36748;BME280;22716;51.556;5.080;2023-04-08T06:56:05;101747.59;;;8.91;100.00
36748;BME280;22716;51.556;5.080;2023-04-08T06:58:34;101745.84;;;8.92;100.00
36748;BME280;22716;51.556;5.080;2023-04-08T07:01:03;101755.50;;;8.99;100.00
36748;BME280;22716;51.556;5.080;2023-04-08T07:03:32;101760.75;;;9.00;100.00
36748;BME280;22716;51.556;5.080;2023-04-08T07:06:00;101768.63;;;9.05;100.00
36748;BME280;22716;51.556;5.080;2023-04-08T07:08:31;101765.19;;;9.09;100.00
36748;BME280;22716;51.556;5.080;2023-04-08T07:11:01;101769.53;;;9.10;100.00
36748;BME280;22716;51.556;5.080;2023-04-08T07:13:29;101767.75;;;9.05;100.00
36748;BME280;22716;51.556;5.080;2023-04-08T07:15:58;101772.22;;;9.15;100.00
36748;BME280;22716;51.556;5.080;2023-04-08T07:18:27;101774.88;;;9.18;100.00
36748;BME280;22716;51.556;5.080;2023-04-08T07:20:56;101773.09;;;9.17;100.00
36748;BME280;22716;51.556;5.080;2023-04-08T07:23:25;101779.22;;;9.17;100.00
36748;BME280;22716;51.556;5.080;2023-04-08T07:26:01;101769.56;;;9.13;100.00
36748;BME280;22716;51.556;5.080;2023-04-08T07:28:30;101774.00;;;9.20;100.00
36748;BME280;22716;51.556;5.080;2023-04-08T07:31:08;101787.22;;;9.34;100.00
36748;BME280;22716;51.556;5.080;2023-04-08T07:33:37;101781.16;;;9.36;100.00
36748;BME280;22716;51.556;5.080;2023-04-08T07:36:08;101792.56;;;9.46;100.00
36748;BME280;22716;51.556;5.080;2023-04-08T07:38:37;101790.88;;;9.52;100.00
36748;BME280;22716;51.556;5.080;2023-04-08T07:41:08;101795.28;;;9.56;100.00
36748;BME280;22716;51.556;5.080;2023-04-08T07:43:37;101789.19;;;9.57;100.00
36748;BME280;22716;51.556;5.080;2023-04-08T07:46:06;101802.38;;;9.70;100.00
36748;BME280;22716;51.556;5.080;2023-04-08T07:48:36;101804.13;;;9.72;100.00
36748;BME280;22716;51.556;5.080;2023-04-08T07:51:05;101800.69;;;9.78;100.00
36748;BME280;22716;51.556;5.080;2023-04-08T07:53:34;101807.69;;;9.79;100.00
36748;BME280;22716;51.556;5.080;2023-04-08T07:56:12;101817.25;;;9.78;100.00
36748;BME280;22716;51.556;5.080;2023-04-08T07:58:43;101812.00;;;9.75;100.00
36748;BME280;22716;51.556;5.080;2023-04-08T08:01:16;101808.47;;;9.72;100.00
36748;BME280;22716;51.556;5.080;2023-04-08T08:03:47;101812.03;;;9.77;100.00
36748;BME280;22716;51.556;5.080;2023-04-08T08:06:16;101821.66;;;9.84;100.00
36748;BME280;22716;51.556;5.080;2023-04-08T08:08:45;101824.31;;;9.87;100.00
36748;BME280;22716;51.556;5.080;2023-04-08T08:11:16;101821.72;;;9.90;100.00
36748;BME280;22716;51.556;5.080;2023-04-08T08:13:45;101825.22;;;9.89;100.00
36748;BME280;22716;51.556;5.080;2023-04-08T08:16:14;101830.47;;;9.89;100.00
36748;BME280;22716;51.556;5.080;2023-04-08T08:18:43;101828.66;;;9.85;100.00
36748;BME280;22716;51.556;5.080;2023-04-08T08:21:12;101827.72;;;9.75;100.00
36748;BME280;22716;51.556;5.080;2023-04-08T08:23:41;101833.88;;;9.80;100.00
36748;BME280;22716;51.556;5.080;2023-04-08T08:26:09;101833.91;;;9.86;100.00
36748;BME280;22716;51.556;5.080;2023-04-08T08:28:41;101839.13;;;9.85;100.00
36748;BME280;22716;51.556;5.080;2023-04-08T08:31:10;101841.69;;;9.79;100.00
36748;BME280;22716;51.556;5.080;2023-04-08T08:33:38;101847.72;;;9.70;100.00
36748;BME280;22716;51.556;5.080;2023-04-08T08:36:07;101844.28;;;9.71;100.00
36748;BME280;22716;51.556;5.080;2023-04-08T08:38:36;101831.09;;;9.64;100.00
36748;BME280;22716;51.556;5.080;2023-04-08T08:41:05;101853.03;;;9.78;100.00
36748;BME280;22716;51.556;5.080;2023-04-08T08:43:34;101849.47;;;9.70;100.00
36748;BME280;22716;51.556;5.080;2023-04-08T08:46:09;101855.66;;;9.76;100.00
36748;BME280;22716;51.556;5.080;2023-04-08T08:48:38;101854.75;;;9.74;100.00
36748;BME280;22716;51.556;5.080;2023-04-08T08:51:08;101858.16;;;9.67;100.00
36748;BME280;22716;51.556;5.080;2023-04-08T08:53:37;101847.63;;;9.56;100.00
36748;BME280;22716;51.556;5.080;2023-04-08T08:56:10;101855.50;;;9.61;100.00
36748;BME280;22716;51.556;5.080;2023-04-08T08:58:39;101854.53;;;9.51;100.00
36748;BME280;22716;51.556;5.080;2023-04-08T09:01:36;101869.34;;;9.49;100.00
36748;BME280;22716;51.556;5.080;2023-04-08T09:04:11;101864.94;;;9.48;100.00
36748;BME280;22716;51.556;5.080;2023-04-08T09:06:42;101867.66;;;9.57;100.00
36748;BME280;22716;51.556;5.080;2023-04-08T09:09:12;101860.66;;;9.55;100.00
36748;BME280;22716;51.556;5.080;2023-04-08T09:11:42;101869.47;;;9.63;100.00
36748;BME280;22716;51.556;5.080;2023-04-08T09:14:22;101858.16;;;9.63;100.00
36748;BME280;22716;51.556;5.080;2023-04-08T09:16:53;101871.25;;;9.66;100.00
36748;BME280;22716;51.556;5.080;2023-04-08T09:19:22;101877.47;;;9.77;100.00
36748;BME280;22716;51.556;5.080;2023-04-08T09:22:04;101879.22;;;9.79;100.00
36748;BME280;22716;51.556;5.080;2023-04-08T09:24:36;101877.50;;;9.80;100.00
36748;BME280;22716;51.556;5.080;2023-04-08T09:27:05;101879.38;;;9.96;100.00
36748;BME280;22716;51.556;5.080;2023-04-08T09:29:34;101886.44;;;10.06;100.00
36748;BME280;22716;51.556;5.080;2023-04-08T09:32:05;101884.63;;;9.99;100.00
36748;BME280;22716;51.556;5.080;2023-04-08T09:34:34;101888.97;;;9.94;100.00
36748;BME280;22716;51.556;5.080;2023-04-08T09:37:03;101886.28;;;9.88;100.00
36748;BME280;22716;51.556;5.080;2023-04-08T09:39:32;101880.06;;;9.78;100.00
36748;BME280;22716;51.556;5.080;2023-04-08T09:42:04;101877.53;;;9.86;100.00
36748;BME280;22716;51.556;5.080;2023-04-08T09:44:36;101888.06;;;9.92;100.00
36748;BME280;22716;51.556;5.080;2023-04-08T09:47:15;101885.44;;;9.93;100.00
36748;BME280;22716;51.556;5.080;2023-04-08T09:49:50;101829.38;;;9.67;100.00
36748;BME280;22716;51.556;5.080;2023-04-08T09:52:25;101895.19;;;10.08;100.00
36748;BME280;22716;51.556;5.080;2023-04-08T09:55:00;101898.63;;;10.01;100.00
36748;BME280;22716;51.556;5.080;2023-04-08T09:57:39;101889.03;;;10.04;100.00
36748;BME280;22716;51.556;5.080;2023-04-08T10:00:11;101893.56;;;10.18;100.00
36748;BME280;22716;51.556;5.080;2023-04-08T10:02:49;101894.47;;;10.23;100.00
36748;BME280;22716;51.556;5.080;2023-04-08T10:05:23;101892.75;;;10.29;100.00
36748;BME280;22716;51.556;5.080;2023-04-08T10:07:55;101894.59;;;10.42;100.00
36748;BME280;22716;51.556;5.080;2023-04-08T10:10:27;101889.31;;;10.39;100.00
36748;BME280;22716;51.556;5.080;2023-04-08T10:12:56;101884.94;;;10.35;100.00
36748;BME280;22716;51.556;5.080;2023-04-08T10:15:26;101894.56;;;10.39;100.00
36748;BME280;22716;51.556;5.080;2023-04-08T10:20:58;101891.22;;;10.63;100.00
36748;BME280;22716;51.556;5.080;2023-04-08T10:23:52;101839.63;;;10.50;100.00
36748;BME280;22716;51.556;5.080;2023-04-08T10:26:30;101900.13;;;10.92;100.00
36748;BME280;22716;51.556;5.080;2023-04-08T10:32:27;101907.97;;;10.85;100.00
36748;BME280;22716;51.556;5.080;2023-04-08T10:34:56;101907.91;;;10.76;100.00
36748;BME280;22716;51.556;5.080;2023-04-08T10:37:27;101900.16;;;10.97;100.00
36748;BME280;22716;51.556;5.080;2023-04-08T10:39:56;101901.97;;;11.16;100.00
36748;BME280;22716;51.556;5.080;2023-04-08T10:42:28;101900.31;;;11.32;100.00
36748;BME280;22716;51.556;5.080;2023-04-08T10:45:01;101900.28;;;11.29;100.00
36748;BME280;22716;51.556;5.080;2023-04-08T10:47:31;101893.25;;;11.20;100.00
36748;BME280;22716;51.556;5.080;2023-04-08T10:50:00;101892.44;;;11.35;100.00
36748;BME280;22716;51.556;5.080;2023-04-08T10:52:31;101888.97;;;11.46;100.00
36748;BME280;22716;51.556;5.080;2023-04-08T10:55:00;101884.63;;;11.53;100.00
36748;BME280;22716;51.556;5.080;2023-04-08T10:57:31;101886.34;;;11.48;100.00
36748;BME280;22716;51.556;5.080;2023-04-08T10:59:59;101894.25;;;11.55;100.00
36748;BME280;22716;51.556;5.080;2023-04-08T11:02:31;101889.00;;;11.55;100.00
36748;BME280;22716;51.556;5.080;2023-04-08T11:05:02;101883.72;;;11.46;100.00
36748;BME280;22716;51.556;5.080;2023-04-08T11:07:39;101896.88;;;11.52;100.00
36748;BME280;22716;51.556;5.080;2023-04-08T11:10:10;101887.22;;;11.44;100.00
36748;BME280;22716;51.556;5.080;2023-04-08T11:12:39;101884.59;;;11.48;100.00
36748;BME280;22716;51.556;5.080;2023-04-08T11:15:11;101882.84;;;11.49;100.00
36748;BME280;22716;51.556;5.080;2023-04-08T11:17:41;101892.50;;;11.57;100.00
36748;BME280;22716;51.556;5.080;2023-04-08T11:20:10;101882.88;;;11.58;100.00
36748;BME280;22716;51.556;5.080;2023-04-08T11:22:43;101880.25;;;11.50;100.00
36748;BME280;22716;51.556;5.080;2023-04-08T11:25:12;101888.13;;;11.50;100.00
36748;BME280;22716;51.556;5.080;2023-04-08T11:27:41;101874.97;;;11.41;100.00
36748;BME280;22716;51.556;5.080;2023-04-08T11:30:11;101865.34;;;11.43;100.00
36748;BME280;22716;51.556;5.080;2023-04-08T11:32:41;101868.84;;;11.51;100.00
36748;BME280;22716;51.556;5.080;2023-04-08T11:35:10;101873.25;;;11.55;100.00
36748;BME280;22716;51.556;5.080;2023-04-08T11:37:41;101861.88;;;11.67;100.00
36748;BME280;22716;51.556;5.080;2023-04-08T11:40:18;101865.44;;;11.76;100.00
36748;BME280;22716;51.556;5.080;2023-04-08T11:42:49;101870.69;;;11.87;100.00
36748;BME280;22716;51.556;5.080;2023-04-08T11:45:20;101863.69;;;12.06;100.00
36748;BME280;22716;51.556;5.080;2023-04-08T11:47:48;101862.78;;;12.22;100.00
36748;BME280;22716;51.556;5.080;2023-04-08T11:50:22;101867.16;;;12.36;100.00
36748;BME280;22716;51.556;5.080;2023-04-08T11:52:57;101872.41;;;12.40;100.00
36748;BME280;22716;51.556;5.080;2023-04-08T11:55:27;101870.63;;;12.51;100.00
36748;BME280;22716;51.556;5.080;2023-04-08T11:58:01;101873.22;;;12.70;100.00
36748;BME280;22716;51.556;5.080;2023-04-08T12:00:30;101872.38;;;12.59;100.00
36748;BME280;22716;51.556;5.080;2023-04-08T12:02:59;101864.44;;;12.74;100.00
36748;BME280;22716;51.556;5.080;2023-04-08T12:05:28;101860.00;;;12.90;100.00
36748;BME280;22716;51.556;5.080;2023-04-08T12:07:59;101870.50;;;12.96;100.00
36748;BME280;22716;51.556;5.080;2023-04-08T12:10:29;101859.97;;;13.02;100.00
36748;BME280;22716;51.556;5.080;2023-04-08T12:12:58;101843.28;;;13.02;100.00
36748;BME280;22716;51.556;5.080;2023-04-08T12:15:26;101860.72;;;13.27;100.00
36748;BME280;22716;51.556;5.080;2023-04-08T12:17:55;101861.50;;;13.47;100.00
36748;BME280;22716;51.556;5.080;2023-04-08T12:20:24;101856.97;;;13.69;99.98
36748;BME280;22716;51.556;5.080;2023-04-08T12:22:53;101866.50;;;13.85;98.64
36748;BME280;22716;51.556;5.080;2023-04-08T12:25:24;101859.34;;;14.02;97.03
36748;BME280;22716;51.556;5.080;2023-04-08T12:27:53;101858.34;;;14.12;96.50
36748;BME280;22716;51.556;5.080;2023-04-08T12:30:24;101860.91;;;14.21;93.73
36748;BME280;22716;51.556;5.080;2023-04-08T12:32:53;101862.69;;;14.21;91.57
36748;BME280;22716;51.556;5.080;2023-04-08T12:35:22;101868.03;;;14.13;89.37
36748;BME280;22716;51.556;5.080;2023-04-08T12:37:51;101866.22;;;14.18;88.94
36748;BME280;22716;51.556;5.080;2023-04-08T12:40:20;101860.84;;;14.33;88.96
36748;BME280;22716;51.556;5.080;2023-04-08T12:42:51;101868.59;;;14.48;87.84
36748;BME280;22716;51.556;5.080;2023-04-08T12:45:20;101865.97;;;14.50;87.39
36748;BME280;22716;51.556;5.080;2023-04-08T12:47:49;101854.59;;;14.43;86.45
36748;BME280;22716;51.556;5.080;2023-04-08T12:50:18;101865.03;;;14.54;86.49
36748;BME280;22716;51.556;5.080;2023-04-08T12:52:48;101853.56;;;14.58;84.38
36748;BME280;22716;51.556;5.080;2023-04-08T12:55:17;101856.88;;;14.74;83.47
36748;BME280;22716;51.556;5.080;2023-04-08T12:57:52;101857.63;;;14.86;82.01
36748;BME280;22716;51.556;5.080;2023-04-08T13:00:21;101849.00;;;14.72;79.29
36748;BME280;22716;51.556;5.080;2023-04-08T13:02:51;101852.34;;;14.86;77.82
36748;BME280;22716;51.556;5.080;2023-04-08T13:05:19;101841.00;;;14.78;77.17
36748;BME280;22716;51.556;5.080;2023-04-08T13:07:48;101830.31;;;14.89;77.56
36748;BME280;22716;51.556;5.080;2023-04-08T13:10:17;101845.97;;;15.04;76.53